Time;durP1;ratioP1;P1;durP2;ratioP2;P2;SDS_P1;SDS_P2;PMS_P1;PMS_P2;Temp;Humidity;BMP_temperature;BMP_pressure;BME280_temperature;BME280_humidity;BME280_pressure;Samples;Min_cycle;Max_cycle;Signal;HPM_P1;HPM_P2
2023/06/10 00:00:43;;;;;;;5.13;4.73;;;23.20;59.50;;;;;;5051359;28;20572;-74
2023/06/10 00:03:10;;;;;;;6.47;5.80;;;23.10;59.60;;;;;;5052146;28;20645;-74
2023/06/10 00:05:38;;;;;;;6.23;5.60;;;23.10;59.80;;;;;;5052996;28;20578;-74
2023/06/10 00:08:08;;;;;;;5.80;5.00;;;23.00;60.80;;;;;;5053669;28;20915;-74
2023/06/10 00:10:38;;;;;;;5.77;5.27;;;23.00;60.30;;;;;;5032668;28;20608;-74
2023/06/10 00:13:07;;;;;;;5.50;5.00;;;22.90;61.30;;;;;;5031968;28;20616;-74
2023/06/10 00:15:35;;;;;;;7.37;4.90;;;22.80;60.90;;;;;;5032060;28;20580;-74
2023/06/10 00:18:02;;;;;;;6.23;5.63;;;22.80;61.10;;;;;;5032103;28;20940;-74
2023/06/10 00:20:28;;;;;;;5.73;5.23;;;22.80;62.00;;;;;;5033034;28;20982;-74
2023/06/10 00:22:53;;;;;;;5.33;4.83;;;22.80;61.80;;;;;;5031548;28;20643;-74
2023/06/10 00:25:19;;;;;;;5.57;5.07;;;22.70;62.00;;;;;;5026194;28;20212;-74
2023/06/10 00:27:45;;;;;;;6.13;5.40;;;22.70;62.10;;;;;;5032703;28;20178;-74
2023/06/10 00:30:11;;;;;;;6.00;5.40;;;22.70;62.30;;;;;;5033031;28;20170;-73
2023/06/10 00:32:37;;;;;;;7.67;5.97;;;22.70;62.90;;;;;;5021898;28;20235;-74
2023/06/10 00:35:04;;;;;;;7.77;5.43;;;22.70;63.10;;;;;;5031536;28;21031;-74
2023/06/10 00:37:31;;;;;;;4.70;4.30;;;22.60;63.30;;;;;;5049382;28;20231;-74
2023/06/10 00:39:58;;;;;;;5.50;5.00;;;22.60;63.40;;;;;;5051595;28;20594;-74
2023/06/10 00:42:25;;;;;;;5.83;5.33;;;22.60;63.80;;;;;;5050907;28;20642;-74
2023/06/10 00:44:51;;;;;;;5.10;4.70;;;22.50;64.00;;;;;;5052677;28;20576;-74
2023/06/10 00:47:17;;;;;;;5.80;5.30;;;22.50;64.30;;;;;;5051708;28;20583;-74
2023/06/10 00:49:44;;;;;;;6.00;5.20;;;22.50;64.90;;;;;;5051068;28;20604;-74
2023/06/10 00:52:10;;;;;;;5.40;4.90;;;22.40;65.10;;;;;;5051047;28;20651;-74
2023/06/10 00:54:38;;;;;;;6.33;4.87;;;22.40;65.40;;;;;;5034309;28;20567;-74
2023/06/10 00:57:05;;;;;;;6.13;5.53;;;22.30;65.70;;;;;;5051414;28;20575;-74
2023/06/10 00:59:31;;;;;;;6.20;5.00;;;22.30;65.90;;;;;;5052068;28;20576;-74
2023/06/10 01:01:57;;;;;;;6.27;5.33;;;22.30;66.20;;;;;;5051871;28;20694;-74
2023/06/10 01:04:24;;;;;;;5.93;5.40;;;22.20;66.60;;;;;;5051776;28;20611;-74
2023/06/10 01:07:14;;;;;;;6.97;6.27;;;22.20;67.10;;;;;;5030563;28;20754;-74
2023/06/10 01:09:47;;;;;;;6.10;5.60;;;22.20;68.30;;;;;;5014111;28;20602;-74
2023/06/10 01:12:18;;;;;;;6.67;6.07;;;22.10;67.70;;;;;;5031490;28;20635;-74
2023/06/10 01:14:44;;;;;;;6.40;5.80;;;22.10;68.40;;;;;;5024390;28;20612;-74
2023/06/10 01:17:17;;;;;;;6.07;5.67;;;22.10;68.60;;;;;;5032508;28;20928;-74
2023/06/10 01:19:44;;;;;;;6.23;5.60;;;22.00;69.20;;;;;;5031005;28;20592;-74
2023/06/10 01:22:10;;;;;;;5.90;5.40;;;22.00;69.80;;;;;;5030309;28;20635;-74
2023/06/10 01:24:40;;;;;;;8.40;6.43;;;21.90;70.30;;;;;;5030592;28;20587;-74
2023/06/10 01:27:12;;;;;;;6.03;5.07;;;21.90;71.00;;;;;;5052682;28;20615;-74
2023/06/10 01:29:45;;;;;;;6.90;6.30;;;21.80;71.70;;;;;;5033702;28;20611;-73
2023/06/10 01:32:21;;;;;;;6.27;5.77;;;21.80;72.50;;;;;;5036234;28;20737;-73
2023/06/10 01:34:48;;;;;;;5.73;5.23;;;21.70;72.80;;;;;;5050021;28;20586;-74
2023/06/10 01:37:19;;;;;;;6.30;5.80;;;21.70;72.80;;;;;;5043044;28;20580;-74
2023/06/10 01:39:46;;;;;;;6.33;5.83;;;21.60;73.50;;;;;;5050629;28;20607;-73
2023/06/10 01:42:12;;;;;;;7.20;6.20;;;21.60;74.10;;;;;;5049770;28;20671;-74
2023/06/10 01:44:41;;;;;;;6.70;6.10;;;21.60;74.60;;;;;;5042445;28;20623;-74
2023/06/10 01:47:08;;;;;;;7.10;6.40;;;21.50;75.50;;;;;;5050042;28;20572;-73
2023/06/10 01:49:34;;;;;;;7.20;6.53;;;21.50;75.80;;;;;;5050314;28;20678;-74
2023/06/10 01:52:00;;;;;;;6.40;5.80;;;21.40;76.20;;;;;;5049869;28;20737;-74
2023/06/10 01:54:26;;;;;;;6.90;6.23;;;21.40;76.90;;;;;;5033258;28;20169;-74
2023/06/10 01:56:52;;;;;;;7.90;5.80;;;21.40;77.50;;;;;;5050261;28;20575;-73
2023/06/10 01:59:18;;;;;;;7.00;6.30;;;21.30;77.90;;;;;;5049653;28;20172;-74
2023/06/10 02:01:44;;;;;;;6.87;6.20;;;21.30;78.50;;;;;;5041580;28;20170;-74
2023/06/10 02:04:10;;;;;;;8.37;6.40;;;21.30;79.10;;;;;;5051060;28;20231;-73
2023/06/10 02:06:37;;;;;;;6.50;5.90;;;21.30;79.70;;;;;;5050100;28;20941;-72
2023/06/10 02:09:03;;;;;;;7.90;6.30;;;21.20;80.20;;;;;;5049676;28;20992;-73
2023/06/10 02:11:29;;;;;;;6.80;6.10;;;21.20;80.80;;;;;;5016450;28;20734;-73
2023/06/10 02:13:54;;;;;;;6.90;6.37;;;21.20;81.40;;;;;;5032903;28;20726;-73
2023/06/10 02:16:21;;;;;;;6.97;6.27;;;21.10;81.90;;;;;;5033443;28;20620;-73
2023/06/10 02:18:48;;;;;;;6.40;5.90;;;21.10;82.60;;;;;;5033184;28;20257;-73
2023/06/10 02:21:14;;;;;;;7.40;5.70;;;21.00;83.30;;;;;;5049193;28;20603;-73
2023/06/10 02:23:40;;;;;;;6.53;5.93;;;21.00;83.80;;;;;;5032837;28;20657;-73
2023/06/10 02:26:06;;;;;;;7.23;6.43;;;20.90;84.20;;;;;;5049261;28;20584;-73
2023/06/10 02:28:32;;;;;;;6.23;5.73;;;20.90;84.80;;;;;;5050806;28;20184;-73
2023/06/10 02:30:59;;;;;;;6.80;6.20;;;20.80;85.40;;;;;;5032487;28;20200;-73
2023/06/10 02:33:27;;;;;;;7.70;6.60;;;20.80;86.00;;;;;;5048901;28;20674;-73
2023/06/10 02:35:53;;;;;;;6.77;6.07;;;20.70;86.70;;;;;;5040102;28;21183;-73
2023/06/10 02:38:19;;;;;;;7.20;6.53;;;20.70;87.40;;;;;;5018528;28;20173;-74
2023/06/10 02:40:45;;;;;;;7.33;6.63;;;20.70;87.90;;;;;;5009364;28;20669;-74
2023/06/10 02:43:12;;;;;;;8.00;6.50;;;20.60;88.40;;;;;;5009701;28;20284;-74
2023/06/10 02:45:38;;;;;;;7.53;6.73;;;20.60;89.10;;;;;;5009986;28;20569;-74
2023/06/10 02:48:04;;;;;;;9.23;8.33;;;20.50;89.50;;;;;;4993586;28;20589;-74
2023/06/10 02:50:31;;;;;;;8.70;7.90;;;20.50;90.00;;;;;;4977070;28;21222;-74
2023/06/10 02:53:18;;;;;;;7.63;6.93;;;20.50;90.30;;;;;;5018285;28;20618;-74
2023/06/10 02:55:49;;;;;;;7.87;7.17;;;20.40;90.50;;;;;;5049859;28;21206;-73
2023/06/10 02:58:17;;;;;;;7.20;6.47;;;20.40;90.70;;;;;;5032599;28;20682;-74
2023/06/10 03:00:44;;;;;;;7.50;6.90;;;20.40;91.00;;;;;;5049205;28;21181;-73
2023/06/10 03:03:11;;;;;;;8.40;7.33;;;20.30;91.30;;;;;;5048796;28;21048;-74
2023/06/10 03:05:45;;;;;;;7.93;6.63;;;20.30;91.50;;;;;;5032832;28;20579;-74
2023/06/10 03:08:12;;;;;;;7.50;6.80;;;20.30;91.80;;;;;;5032400;28;20580;-74
2023/06/10 03:10:40;;;;;;;8.77;8.03;;;20.20;92.00;;;;;;5049061;28;20979;-74
2023/06/10 03:13:06;;;;;;;8.07;6.83;;;20.20;92.20;;;;;;5048683;28;20647;-74
2023/06/10 03:15:36;;;;;;;7.67;7.07;;;20.20;92.50;;;;;;5032591;28;20932;-74
2023/06/10 03:18:06;;;;;;;8.73;7.50;;;20.20;92.80;;;;;;5048986;28;20173;-73
2023/06/10 03:20:36;;;;;;;8.70;7.90;;;20.10;93.00;;;;;;5032373;28;20579;-74
2023/06/10 03:23:06;;;;;;;7.10;6.60;;;20.10;93.30;;;;;;5065493;28;20611;-73
2023/06/10 03:25:33;;;;;;;8.57;7.27;;;20.10;93.60;;;;;;5049189;28;20588;-73
2023/06/10 03:27:58;;;;;;;9.10;8.20;;;20.10;93.90;;;;;;5049149;28;20659;-74
2023/06/10 03:30:24;;;;;;;9.20;7.67;;;20.10;94.10;;;;;;5048406;28;20174;-73
2023/06/10 03:32:50;;;;;;;10.90;8.33;;;20.00;94.30;;;;;;5006364;28;21008;-73
2023/06/10 03:35:18;;;;;;;8.57;7.83;;;20.00;94.50;;;;;;5027985;28;20978;-73
2023/06/10 03:37:44;;;;;;;9.33;8.43;;;20.00;95.20;;;;;;5034327;28;20595;-72
2023/06/10 03:40:11;;;;;;;10.10;8.70;;;20.00;95.10;;;;;;5052026;28;20567;-73
2023/06/10 03:42:39;;;;;;;9.83;8.93;;;20.00;95.40;;;;;;5035816;28;20423;-73
2023/06/10 03:45:07;;;;;;;8.57;7.83;;;20.00;95.70;;;;;;5035463;28;20690;-73
2023/06/10 03:47:36;;;;;;;8.43;7.63;;;20.00;95.90;;;;;;5069139;28;20571;-73
2023/06/10 03:50:05;;;;;;;8.83;8.03;;;20.00;96.10;;;;;;5035301;28;20615;-73
2023/06/10 03:52:31;;;;;;;9.50;8.10;;;20.00;96.30;;;;;;5052168;28;20643;-73
2023/06/10 03:54:58;;;;;;;8.87;8.17;;;20.00;96.50;;;;;;5035952;28;20905;-73
2023/06/10 03:57:23;;;;;;;8.83;8.03;;;20.00;96.70;;;;;;5051973;28;20591;-73
2023/06/10 03:59:49;;;;;;;8.47;7.67;;;20.10;97.00;;;;;;5035458;28;20242;-73
2023/06/10 04:02:16;;;;;;;8.67;7.87;;;20.10;97.20;;;;;;5052978;28;20219;-73
2023/06/10 04:04:43;;;;;;;8.90;8.10;;;20.10;97.50;;;;;;5052236;28;20555;-73
2023/06/10 04:07:08;;;;;;;8.97;8.13;;;20.10;97.70;;;;;;5051689;28;20584;-74
2023/06/10 04:09:35;;;;;;;8.20;7.40;;;20.10;98.00;;;;;;5035613;28;20714;-74
2023/06/10 04:12:02;;;;;;;8.50;7.80;;;20.20;98.20;;;;;;5051209;28;20216;-74
2023/06/10 04:14:28;;;;;;;9.23;8.20;;;20.20;98.50;;;;;;5035353;28;20579;-73
2023/06/10 04:16:54;;;;;;;8.73;7.83;;;20.20;98.60;;;;;;5051618;28;20582;-74
2023/06/10 04:19:21;;;;;;;8.47;7.77;;;20.20;98.80;;;;;;5051999;28;20686;-74
2023/06/10 04:21:47;;;;;;;8.07;7.37;;;20.30;99.00;;;;;;5034931;28;20197;-73
2023/06/10 04:24:13;;;;;;;8.20;7.40;;;20.30;99.20;;;;;;5051502;28;20588;-74
2023/06/10 04:26:38;;;;;;;8.40;7.57;;;20.30;99.40;;;;;;5068650;28;20980;-73
2023/06/10 04:29:05;;;;;;;8.60;7.80;;;20.50;99.90;;;;;;5047791;28;20225;-73
2023/06/10 04:31:32;;;;;;;9.93;8.77;;;20.70;99.90;;;;;;5025544;28;21197;-73
2023/06/10 04:33:58;;;;;;;8.20;7.40;;;20.90;99.90;;;;;;5048096;28;20572;-73
2023/06/10 04:36:24;;;;;;;10.07;7.80;;;21.00;99.90;;;;;;5023206;28;20592;-73
2023/06/10 04:38:52;;;;;;;7.80;7.20;;;21.20;99.90;;;;;;5067623;28;20591;-73
2023/06/10 04:41:18;;;;;;;8.20;7.40;;;21.30;99.90;;;;;;5051176;28;20584;-73
2023/06/10 04:43:44;;;;;;;8.40;7.50;;;21.50;99.90;;;;;;5050879;28;21041;-73
2023/06/10 04:46:10;;;;;;;7.40;6.80;;;21.70;99.90;;;;;;5067775;28;20961;-73
2023/06/10 04:48:37;;;;;;;8.50;7.03;;;21.80;99.90;;;;;;5052838;28;20603;-73
2023/06/10 04:51:04;;;;;;;8.10;7.40;;;21.90;99.90;;;;;;5034225;28;21221;-73
2023/06/10 04:53:30;;;;;;;9.87;7.67;;;22.10;99.90;;;;;;5068012;28;20591;-73
2023/06/10 04:55:57;;;;;;;7.50;6.80;;;22.20;99.90;;;;;;5050901;28;20579;-73
2023/06/10 04:58:23;;;;;;;8.90;8.00;;;22.30;99.90;;;;;;5051484;28;20625;-73
2023/06/10 05:00:49;;;;;;;8.20;7.47;;;22.50;99.90;;;;;;5051823;28;20618;-73
2023/06/10 05:03:15;;;;;;;7.70;7.00;;;22.60;99.90;;;;;;5067898;28;20611;-73
2023/06/10 05:05:40;;;;;;;8.07;7.37;;;22.80;99.90;;;;;;5050787;28;20209;-74
2023/06/10 05:08:06;;;;;;;7.70;7.00;;;22.90;99.90;;;;;;5052545;28;20188;-73
2023/06/10 05:10:34;;;;;;;8.00;6.90;;;23.10;99.90;;;;;;5050214;28;20173;-73
2023/06/10 05:12:59;;;;;;;6.27;5.70;;;23.20;99.90;;;;;;5051385;28;20204;-74
2023/06/10 05:15:25;;;;;;;6.63;6.13;;;23.50;99.90;;;;;;5051092;28;21210;-73
2023/06/10 05:17:51;;;;;;;7.30;6.60;;;23.70;99.90;;;;;;5050555;28;20585;-74
2023/06/10 05:20:18;;;;;;;7.27;6.67;;;24.00;99.90;;;;;;5050951;28;20331;-74
2023/06/10 05:22:44;;;;;;;7.07;6.40;;;24.30;99.90;;;;;;5051789;28;20971;-74
2023/06/10 05:25:10;;;;;;;6.13;5.60;;;24.60;99.70;;;;;;5031722;28;20601;-74
2023/06/10 05:27:36;;;;;;;5.90;5.40;;;24.80;99.00;;;;;;5026195;28;20587;-74
2023/06/10 05:30:03;;;;;;;5.30;4.80;;;24.90;98.30;;;;;;5030864;28;20633;-76
2023/06/10 05:32:29;;;;;;;5.50;5.03;;;25.10;98.00;;;;;;5015241;28;21117;-74
2023/06/10 05:34:55;;;;;;;6.90;5.57;;;25.10;97.40;;;;;;5030594;28;20667;-75
2023/06/10 05:37:20;;;;;;;8.50;6.00;;;25.20;97.00;;;;;;5046090;28;20173;-74
2023/06/10 05:39:46;;;;;;;7.27;5.53;;;25.30;96.60;;;;;;5067021;28;20579;-74
2023/06/10 05:42:12;;;;;;;7.00;5.70;;;25.40;96.70;;;;;;5051460;28;20204;-75
2023/06/10 05:44:38;;;;;;;5.67;5.17;;;25.50;95.70;;;;;;5051615;28;20204;-74
2023/06/10 05:47:04;;;;;;;6.93;5.50;;;25.60;95.30;;;;;;5050479;28;20176;-75
2023/06/10 05:49:29;;;;;;;6.00;5.40;;;25.80;95.10;;;;;;5050093;28;20613;-74
2023/06/10 05:51:57;;;;;;;5.40;4.90;;;25.80;94.80;;;;;;5051497;28;20637;-74
2023/06/10 05:54:23;;;;;;;15.23;4.70;;;25.90;94.80;;;;;;5033210;28;20276;-75
2023/06/10 05:56:48;;;;;;;5.10;4.60;;;26.40;95.50;;;;;;5049666;28;20658;-74
2023/06/10 05:59:14;;;;;;;5.30;4.63;;;27.10;95.90;;;;;;5050163;28;20173;-74
2023/06/10 06:01:40;;;;;;;5.20;4.70;;;27.90;95.60;;;;;;5051898;28;20169;-74
2023/06/10 06:04:06;;;;;;;4.63;4.23;;;28.70;95.20;;;;;;5049604;28;20617;-74
2023/06/10 06:06:31;;;;;;;4.83;3.83;;;29.60;94.80;;;;;;5050210;28;20215;-75
2023/06/10 06:09:00;;;;;;;4.40;4.00;;;30.60;94.50;;;;;;5051271;28;20165;-74
2023/06/10 06:11:26;;;;;;;4.13;3.40;;;31.50;92.80;;;;;;5049064;28;20260;-74
2023/06/10 06:13:52;;;;;;;5.93;4.00;;;32.50;91.70;;;;;;5062868;28;20596;-74
2023/06/10 06:16:18;;;;;;;4.23;3.83;;;33.30;89.80;;;;;;5024018;28;20172;-74
2023/06/10 06:18:44;;;;;;;3.80;3.40;;;34.00;85.30;;;;;;5023847;28;20166;-75
2023/06/10 06:21:09;;;;;;;3.33;2.63;;;34.30;74.50;;;;;;5019620;28;20200;-75
2023/06/10 06:23:35;;;;;;;3.27;2.97;;;34.60;69.90;;;;;;5024548;28;20607;-75
2023/06/10 06:26:01;;;;;;;4.03;3.30;;;34.80;65.00;;;;;;5046162;28;20541;-75
2023/06/10 06:28:29;;;;;;;6.57;3.50;;;35.00;61.00;;;;;;5029615;28;20177;-75
2023/06/10 06:30:56;;;;;;;4.07;2.63;;;35.00;57.00;;;;;;5029027;28;20595;-74
2023/06/10 06:33:21;;;;;;;3.47;3.17;;;35.20;58.40;;;;;;5031079;28;20604;-75
2023/06/10 06:35:47;;;;;;;3.30;3.00;;;35.50;56.60;;;;;;5032459;28;21217;-74
2023/06/10 06:38:13;;;;;;;4.80;2.90;;;35.80;56.70;;;;;;5049195;28;20208;-74
2023/06/10 06:40:38;;;;;;;4.20;3.03;;;36.30;56.30;;;;;;5032876;28;20197;-75
2023/06/10 06:43:04;;;;;;;3.63;3.00;;;36.80;55.60;;;;;;5032408;28;20688;-75
2023/06/10 06:45:39;;;;;;;4.60;3.40;;;37.20;53.40;;;;;;5049814;28;20176;-75
2023/06/10 06:48:05;;;;;;;4.37;2.90;;;37.50;50.80;;;;;;5049268;28;20590;-74
2023/06/10 06:50:31;;;;;;;4.03;3.20;;;37.60;50.00;;;;;;5049417;28;20173;-74
2023/06/10 06:52:56;;;;;;;3.53;2.93;;;37.70;49.40;;;;;;5048887;28;20646;-74
2023/06/10 06:55:22;;;;;;;2.83;2.57;;;37.70;48.40;;;;;;5049541;28;20169;-74
2023/06/10 06:57:48;;;;;;;3.57;2.33;;;37.90;48.30;;;;;;5050393;28;20256;-74
2023/06/10 07:00:14;;;;;;;3.90;2.97;;;37.90;47.30;;;;;;5049342;28;20183;-74
2023/06/10 07:02:41;;;;;;;3.10;2.80;;;37.70;45.90;;;;;;5050607;28;20715;-74
2023/06/10 07:05:07;;;;;;;5.37;2.70;;;37.90;46.40;;;;;;5049136;28;20579;-74
2023/06/10 07:07:34;;;;;;;3.13;2.83;;;38.10;45.70;;;;;;5050018;28;20617;-74
2023/06/10 07:10:00;;;;;;;3.23;2.93;;;38.30;45.40;;;;;;5015711;28;21195;-74
2023/06/10 07:12:26;;;;;;;3.77;2.60;;;38.50;45.30;;;;;;5014686;28;20248;-73
2023/06/10 07:14:52;;;;;;;4.87;3.50;;;38.70;44.70;;;;;;5014054;28;20604;-73
2023/06/10 07:17:18;;;;;;;3.80;2.77;;;38.80;44.80;;;;;;5024812;28;20190;-74
2023/06/10 07:19:45;;;;;;;3.80;2.43;;;39.30;43.90;;;;;;5013250;28;20265;-74
2023/06/10 07:22:10;;;;;;;3.60;3.17;;;39.60;43.20;;;;;;5023932;28;20677;-74
2023/06/10 07:24:36;;;;;;;5.53;3.60;;;39.70;42.20;;;;;;5015564;28;20593;-74
2023/06/10 07:27:08;;;;;;;3.33;3.03;;;39.70;40.90;;;;;;5018286;28;20182;-74
2023/06/10 07:29:35;;;;;;;3.23;2.83;;;39.40;39.00;;;;;;4997132;28;20589;-74
2023/06/10 07:32:02;;;;;;;6.43;3.30;;;39.20;39.20;;;;;;5012882;28;20647;-74
2023/06/10 07:34:28;;;;;;;3.03;2.73;;;39.10;39.30;;;;;;4996968;28;21128;-74
2023/06/10 07:36:54;;;;;;;4.30;3.10;;;38.80;39.20;;;;;;5010753;28;20628;-74
2023/06/10 07:39:20;;;;;;;3.20;2.50;;;38.70;39.80;;;;;;5024397;28;20577;-74
2023/06/10 07:41:46;;;;;;;3.77;2.90;;;39.00;40.30;;;;;;5020801;28;20575;-74
2023/06/10 07:44:12;;;;;;;3.13;2.90;;;39.10;39.70;;;;;;5031775;28;20204;-74
2023/06/10 07:46:38;;;;;;;4.30;3.47;;;39.20;39.70;;;;;;5028833;28;20170;-74
2023/06/10 07:49:03;;;;;;;3.67;2.70;;;39.30;39.90;;;;;;5032648;28;20177;-74
2023/06/10 07:51:29;;;;;;;3.30;2.73;;;39.70;39.60;;;;;;5033039;28;20293;-74
2023/06/10 07:53:55;;;;;;;3.90;2.43;;;40.00;39.70;;;;;;5032906;28;20174;-74
2023/06/10 07:56:21;;;;;;;3.43;2.50;;;40.50;39.60;;;;;;5033742;28;20170;-74
2023/06/10 07:58:47;;;;;;;3.20;2.90;;;40.90;39.00;;;;;;5032268;28;20170;-74
2023/06/10 08:01:12;;;;;;;3.10;2.80;;;41.30;38.80;;;;;;5015836;28;20588;-74
2023/06/10 08:03:38;;;;;;;2.90;2.60;;;41.60;38.30;;;;;;5032137;28;20197;-75
2023/06/10 08:06:05;;;;;;;5.90;2.60;;;42.00;37.70;;;;;;5032518;28;20173;-75
2023/06/10 08:08:31;;;;;;;2.87;2.57;;;42.20;36.50;;;;;;5033297;28;21043;-75
2023/06/10 08:10:57;;;;;;;3.37;2.97;;;42.30;36.40;;;;;;5032092;28;20637;-75
2023/06/10 08:13:22;;;;;;;2.40;2.17;;;42.60;37.00;;;;;;5031364;28;20669;-75
2023/06/10 08:15:50;;;;;;;4.37;3.13;;;42.80;36.10;;;;;;5025151;28;20653;-75
2023/06/10 08:18:16;;;;;;;3.47;3.17;;;42.70;35.00;;;;;;5030786;28;20912;-75
2023/06/10 08:20:42;;;;;;;3.43;3.13;;;42.60;34.70;;;;;;5031105;28;20637;-75
2023/06/10 08:23:07;;;;;;;4.10;2.70;;;42.70;34.90;;;;;;5015106;28;20217;-74
2023/06/10 08:25:33;;;;;;;3.63;2.70;;;43.00;34.90;;;;;;5021249;28;20198;-75
2023/06/10 08:27:59;;;;;;;3.47;2.93;;;43.30;35.00;;;;;;5020329;28;20170;-75
2023/06/10 08:30:24;;;;;;;4.60;2.97;;;43.60;34.80;;;;;;5011524;28;20649;-75
2023/06/10 08:32:51;;;;;;;3.93;3.53;;;43.90;34.30;;;;;;5020449;28;20620;-75
2023/06/10 08:35:17;;;;;;;3.10;2.90;;;44.10;33.80;;;;;;5023188;28;20176;-75
2023/06/10 08:37:43;;;;;;;3.07;2.77;;;44.30;33.70;;;;;;5051806;28;21174;-75
2023/06/10 08:40:09;;;;;;;4.33;3.43;;;44.50;33.30;;;;;;5051037;28;20177;-76
2023/06/10 08:43:08;;;;;;;3.83;3.10;;;44.60;32.90;;;;;;5044394;28;20709;-76
2023/06/10 08:45:36;;;;;;;4.00;3.40;;;44.80;32.50;;;;;;5025429;28;20178;-76
2023/06/10 08:48:08;;;;;;;3.30;3.00;;;45.00;32.60;;;;;;5031755;28;21210;-76
2023/06/10 08:50:37;;;;;;;4.03;3.20;;;45.20;31.90;;;;;;5032288;28;20608;-75
2023/06/10 08:53:05;;;;;;;3.10;2.80;;;45.00;30.90;;;;;;5031408;28;20679;-73
2023/06/10 08:55:35;;;;;;;4.27;3.00;;;44.70;31.10;;;;;;5031054;28;21011;-75
2023/06/10 08:58:01;;;;;;;3.43;3.13;;;44.70;31.10;;;;;;5033021;28;20936;-75
2023/06/10 09:00:29;;;;;;;3.23;2.63;;;44.60;31.50;;;;;;5030838;28;20588;-75
2023/06/10 09:02:58;;;;;;;4.77;3.73;;;44.70;30.80;;;;;;5013671;28;21007;-76
2023/06/10 09:05:24;;;;;;;3.80;3.10;;;44.80;30.70;;;;;;5011748;28;20596;-76
2023/06/10 09:07:52;;;;;;;5.57;3.30;;;44.50;30.00;;;;;;5010981;28;20585;-76
2023/06/10 09:10:18;;;;;;;3.37;2.87;;;44.20;30.20;;;;;;5024133;28;20618;-76
2023/06/10 09:12:44;;;;;;;3.33;3.10;;;44.30;30.70;;;;;;5026136;28;20632;-76
2023/06/10 09:15:12;;;;;;;3.40;3.03;;;44.50;30.60;;;;;;5031244;28;20228;-76
2023/06/10 09:17:40;;;;;;;3.30;3.00;;;44.60;30.90;;;;;;5030715;28;20174;-76
2023/06/10 09:20:07;;;;;;;3.20;2.90;;;44.90;30.70;;;;;;5031025;28;20596;-76
2023/06/10 09:22:33;;;;;;;2.90;2.70;;;45.10;30.40;;;;;;5013654;28;20707;-74
2023/06/10 09:25:16;;;;;;;3.60;3.30;;;45.30;30.60;;;;;;5027369;28;20664;-73
2023/06/10 09:27:54;;;;;;;3.50;2.90;;;45.70;30.30;;;;;;5025078;28;20621;-76
2023/06/10 09:30:33;;;;;;;4.90;3.43;;;45.70;29.60;;;;;;5026595;28;20569;-77
2023/06/10 09:33:10;;;;;;;3.80;3.50;;;45.70;29.60;;;;;;5011152;28;21187;-76
2023/06/10 09:35:36;;;;;;;3.57;3.13;;;45.30;28.80;;;;;;5021495;28;20588;-77
2023/06/10 09:38:02;;;;;;;3.43;3.13;;;44.50;28.80;;;;;;5051955;28;20568;-76
2023/06/10 09:40:28;;;;;;;4.20;3.90;;;44.30;29.50;;;;;;5049791;28;20203;-76
2023/06/10 09:42:58;;;;;;;3.90;3.43;;;44.20;29.30;;;;;;5050118;28;20639;-76
2023/06/10 09:45:33;;;;;;;3.97;2.67;;;44.00;29.40;;;;;;5051413;28;20925;-76
2023/06/10 09:48:00;;;;;;;3.57;3.27;;;44.20;29.80;;;;;;5050412;28;20575;-76
2023/06/10 09:50:26;;;;;;;4.03;3.63;;;44.50;30.00;;;;;;5049648;28;20635;-77
2023/06/10 09:52:53;;;;;;;4.60;3.70;;;44.60;29.50;;;;;;5050150;28;20728;-76
2023/06/10 09:55:18;;;;;;;3.37;3.00;;;44.50;29.00;;;;;;5051329;28;20173;-76
2023/06/10 09:57:47;;;;;;;4.27;3.97;;;44.30;28.70;;;;;;5051598;28;20590;-76
2023/06/10 10:00:15;;;;;;;5.90;3.10;;;44.00;28.90;;;;;;5066555;28;20177;-76
2023/06/10 10:02:49;;;;;;;3.60;3.30;;;43.90;29.20;;;;;;5051163;28;20733;-76
2023/06/10 10:05:16;;;;;;;3.23;2.90;;;44.00;29.30;;;;;;5059699;28;20612;-76
2023/06/10 10:07:43;;;;;;;4.73;3.90;;;44.30;29.70;;;;;;5013487;28;20583;-76
2023/06/10 10:10:10;;;;;;;3.93;3.63;;;44.50;29.30;;;;;;5029675;28;20595;-77
2023/06/10 10:12:37;;;;;;;3.90;3.10;;;44.70;28.90;;;;;;5013156;28;20693;-76
2023/06/10 10:15:08;;;;;;;5.10;3.27;;;44.60;28.80;;;;;;5030032;28;20757;-76
2023/06/10 10:17:37;;;;;;;5.73;3.60;;;44.60;28.90;;;;;;5030989;28;20576;-76
2023/06/10 10:20:06;;;;;;;4.10;3.40;;;44.60;28.70;;;;;;5029907;28;21209;-76
2023/06/10 10:22:39;;;;;;;3.70;3.40;;;44.20;28.10;;;;;;5029054;28;20758;-76
2023/06/10 10:25:16;;;;;;;4.33;3.07;;;43.90;28.60;;;;;;5030365;28;20680;-76
2023/06/10 10:27:42;;;;;;;3.50;3.20;;;44.00;29.10;;;;;;5012869;28;20592;-76
2023/06/10 10:30:11;;;;;;;3.47;3.03;;;44.20;29.60;;;;;;5029691;28;21401;-76
2023/06/10 10:33:09;;;;;;;3.80;3.50;;;44.50;29.40;;;;;;5046020;28;20189;-76
2023/06/10 10:35:36;;;;;;;5.63;2.83;;;44.80;29.50;;;;;;4979586;28;20632;-76
2023/06/10 10:38:03;;;;;;;4.50;3.70;;;45.00;29.00;;;;;;5050727;28;20741;-76
2023/06/10 10:40:29;;;;;;;3.70;3.03;;;44.90;28.30;;;;;;5049363;28;20587;-76
2023/06/10 10:42:57;;;;;;;4.80;3.03;;;44.50;28.00;;;;;;5050009;28;20997;-76
2023/06/10 10:45:23;;;;;;;3.70;3.33;;;44.40;28.60;;;;;;5049811;28;20579;-76
2023/06/10 10:47:55;;;;;;;3.00;2.70;;;44.50;28.60;;;;;;5049290;28;21255;-76
2023/06/10 10:50:21;;;;;;;2.80;2.50;;;44.50;28.40;;;;;;5032839;28;20226;-76
2023/06/10 10:53:00;;;;;;;3.77;3.40;;;44.30;27.50;;;;;;5049060;28;20642;-76
2023/06/10 10:55:27;;;;;;;7.03;3.07;;;43.70;27.40;;;;;;5049654;28;20595;-76
2023/06/10 10:58:07;;;;;;;5.70;3.67;;;43.10;27.30;;;;;;5049449;28;20575;-76
2023/06/10 11:00:45;;;;;;;3.87;3.47;;;42.60;27.90;;;;;;5065836;28;20694;-76
2023/06/10 11:03:18;;;;;;;3.17;2.90;;;42.40;28.10;;;;;;5020307;28;20645;-76
2023/06/10 11:05:48;;;;;;;4.00;3.50;;;42.10;28.40;;;;;;5029079;28;21144;-76
2023/06/10 11:08:15;;;;;;;3.43;3.03;;;41.70;27.90;;;;;;5030940;28;21135;-76
2023/06/10 11:10:53;;;;;;;5.37;3.50;;;41.20;27.50;;;;;;5045636;28;20592;-76
2023/06/10 11:13:21;;;;;;;3.00;2.80;;;40.50;27.10;;;;;;5029584;28;20616;-76
2023/06/10 11:15:50;;;;;;;3.60;3.30;;;40.00;27.80;;;;;;5029081;28;20699;-76
2023/06/10 11:18:26;;;;;;;7.23;3.43;;;39.70;27.60;;;;;;5046228;28;21170;-76
2023/06/10 11:20:57;;;;;;;7.70;4.20;;;39.30;27.70;;;;;;5028780;28;20638;-76
2023/06/10 11:23:28;;;;;;;3.70;3.40;;;39.00;27.80;;;;;;5029312;28;20695;-76
2023/06/10 11:26:13;;;;;;;4.20;3.10;;;38.80;28.10;;;;;;5029036;28;20576;-76
2023/06/10 11:28:40;;;;;;;3.93;3.27;;;38.90;28.30;;;;;;5012776;28;20579;-76
2023/06/10 11:31:06;;;;;;;3.57;3.27;;;38.80;28.00;;;;;;5030000;28;21159;-76
2023/06/10 11:33:32;;;;;;;3.87;3.53;;;38.70;28.00;;;;;;5029128;28;20612;-76
2023/06/10 11:35:59;;;;;;;4.00;3.30;;;38.40;27.70;;;;;;5033021;28;20579;-75
2023/06/10 11:38:25;;;;;;;4.20;3.90;;;38.10;27.90;;;;;;5050493;28;20665;-76
2023/06/10 11:40:51;;;;;;;3.63;3.17;;;37.90;28.10;;;;;;5048449;28;20579;-76
2023/06/10 11:43:17;;;;;;;4.00;3.47;;;37.70;28.30;;;;;;5048901;28;20666;-76
2023/06/10 11:45:44;;;;;;;3.73;3.40;;;37.60;28.50;;;;;;5049037;28;20584;-76
2023/06/10 11:48:10;;;;;;;5.27;3.77;;;37.40;28.40;;;;;;5050146;28;20662;-76
2023/06/10 11:50:37;;;;;;;4.50;3.10;;;37.10;28.30;;;;;;5048848;28;20682;-76
2023/06/10 11:53:03;;;;;;;5.10;3.40;;;36.80;28.30;;;;;;5049481;28;20991;-76
2023/06/10 11:55:46;;;;;;;5.17;2.87;;;36.50;28.50;;;;;;5050814;28;20645;-76
2023/06/10 11:58:20;;;;;;;4.23;3.47;;;36.30;28.60;;;;;;5042175;28;20599;-76
2023/06/10 12:00:53;;;;;;;3.67;3.37;;;36.10;28.60;;;;;;5033917;28;20626;-75
2023/06/10 12:03:19;;;;;;;3.10;2.80;;;35.90;28.80;;;;;;5032129;28;21207;-76
2023/06/10 12:05:58;;;;;;;3.70;3.40;;;35.70;28.80;;;;;;5032463;28;20591;-76
2023/06/10 12:08:25;;;;;;;3.83;3.20;;;35.50;29.20;;;;;;5033642;28;20681;-75
2023/06/10 12:10:51;;;;;;;3.73;3.37;;;35.30;29.10;;;;;;5033402;28;20928;-74
2023/06/10 12:13:18;;;;;;;4.53;2.87;;;35.30;29.20;;;;;;5033205;28;20619;-74
2023/06/10 12:15:47;;;;;;;3.00;2.80;;;35.20;29.40;;;;;;5032503;28;20176;-74
2023/06/10 12:18:23;;;;;;;5.17;2.70;;;35.20;29.90;;;;;;5031728;28;20594;-74
2023/06/10 12:20:50;;;;;;;3.37;3.07;;;35.30;30.40;;;;;;5015448;28;20596;-74
2023/06/10 12:23:17;;;;;;;3.70;3.10;;;35.30;30.40;;;;;;5031659;28;20965;-74
2023/06/10 12:25:54;;;;;;;4.17;3.00;;;35.30;30.40;;;;;;5015682;28;20581;-74
2023/06/10 12:28:24;;;;;;;3.40;3.10;;;35.20;30.80;;;;;;5015313;28;20577;-74
2023/06/10 12:30:50;;;;;;;4.80;3.57;;;35.20;30.70;;;;;;5032374;28;20579;-74
2023/06/10 12:33:17;;;;;;;3.30;3.00;;;35.10;31.00;;;;;;5033295;28;20709;-74
2023/06/10 12:35:51;;;;;;;3.70;3.00;;;35.10;31.20;;;;;;5035156;28;20597;-74
2023/06/10 12:38:26;;;;;;;4.17;2.90;;;35.10;31.30;;;;;;5053263;28;20989;-74
2023/06/10 12:40:53;;;;;;;3.70;2.93;;;35.10;31.50;;;;;;5051202;28;20589;-74
2023/06/10 12:43:20;;;;;;;5.03;3.10;;;35.10;31.20;;;;;;5052684;28;20629;-74
2023/06/10 12:45:46;;;;;;;7.73;3.30;;;35.20;31.20;;;;;;5052645;28;20585;-75
2023/06/10 12:48:17;;;;;;;3.13;2.70;;;35.20;31.20;;;;;;5051661;28;20590;-74